createdAt,value
2022-08-30T00:01:33.726Z,14.92
2022-08-30T00:04:35.751Z,14.86
2022-08-30T00:07:37.447Z,14.80
2022-08-30T00:10:40.955Z,14.77
2022-08-30T00:13:45.113Z,14.72
2022-08-30T00:16:47.115Z,14.70
2022-08-30T00:19:49.071Z,14.67
2022-08-30T00:22:50.698Z,14.65
2022-08-30T00:25:52.686Z,14.63
2022-08-30T00:28:55.221Z,14.61
2022-08-30T00:31:57.035Z,14.61
2022-08-30T00:34:58.936Z,14.64
2022-08-30T00:38:00.727Z,14.65
2022-08-30T00:41:02.640Z,14.69
2022-08-30T00:44:04.833Z,14.69
2022-08-30T00:47:06.961Z,14.75
2022-08-30T00:50:11.059Z,14.74
2022-08-30T00:53:19.401Z,14.72
2022-08-30T00:56:23.399Z,14.73
2022-08-30T00:59:27.624Z,14.68
2022-08-30T01:02:31.339Z,14.62
2022-08-30T01:05:33.515Z,14.59
2022-08-30T01:08:35.308Z,14.54
2022-08-30T01:11:38.092Z,14.51
2022-08-30T01:14:40.166Z,14.45
2022-08-30T01:17:45.429Z,14.41
2022-08-30T01:20:57.165Z,14.34
2022-08-30T01:24:00.885Z,14.27
2022-08-30T01:27:02.724Z,14.21
2022-08-30T01:30:06.781Z,14.15
2022-08-30T01:33:09.799Z,14.06
2022-08-30T01:36:14.879Z,13.99
2022-08-30T01:39:18.803Z,13.91
2022-08-30T01:42:21.486Z,13.85
2022-08-30T01:45:23.276Z,13.80
2022-08-30T01:48:29.221Z,13.76
2022-08-30T01:51:33.384Z,13.71
2022-08-30T01:54:38.620Z,13.64
2022-08-30T01:57:41.455Z,13.61
2022-08-30T02:00:43.339Z,13.59
2022-08-30T02:03:45.661Z,13.54
2022-08-30T02:06:47.746Z,13.49
2022-08-30T02:09:50.222Z,13.43
2022-08-30T02:12:52.228Z,13.40
2022-08-30T02:16:00.324Z,13.35
2022-08-30T02:19:02.095Z,13.33
2022-08-30T02:22:04.316Z,13.29
2022-08-30T02:25:18.702Z,13.27
2022-08-30T02:28:22.974Z,13.22
2022-08-30T02:31:26.713Z,13.17
2022-08-30T02:34:28.566Z,13.16
2022-08-30T02:37:30.885Z,13.15
2022-08-30T02:40:32.932Z,13.11
2022-08-30T02:43:34.799Z,13.13
2022-08-30T02:46:37.225Z,13.14
2022-08-30T02:49:39.117Z,13.10
2022-08-30T02:52:40.972Z,13.11
2022-08-30T02:55:43.317Z,13.12
2022-08-30T02:58:45.533Z,13.15
2022-08-30T03:01:47.309Z,13.24
2022-08-30T03:04:49.534Z,13.31
2022-08-30T03:07:51.763Z,13.46
2022-08-30T03:10:53.646Z,13.61
2022-08-30T03:13:55.689Z,13.75
2022-08-30T03:16:57.717Z,13.87
2022-08-30T03:20:02.127Z,13.95
2022-08-30T03:23:04.145Z,14.03
2022-08-30T03:26:06.667Z,14.11
2022-08-30T03:29:08.655Z,14.15
2022-08-30T03:32:12.062Z,14.17
2022-08-30T03:35:14.432Z,14.23
2022-08-30T03:38:16.851Z,14.27
2022-08-30T03:41:18.578Z,14.33
2022-08-30T03:44:21.494Z,14.36
2022-08-30T03:47:23.464Z,14.39
2022-08-30T03:50:25.541Z,14.44
2022-08-30T03:53:27.388Z,14.53
2022-08-30T03:56:29.247Z,14.58
2022-08-30T03:59:30.918Z,14.61
2022-08-30T04:02:32.937Z,14.67
2022-08-30T04:05:34.872Z,14.70
2022-08-30T04:08:36.687Z,14.74
2022-08-30T04:11:38.684Z,14.79
2022-08-30T04:14:40.392Z,14.83
2022-08-30T04:17:43.866Z,14.84
2022-08-30T04:20:45.850Z,14.86
2022-08-30T04:23:47.515Z,14.93
2022-08-30T04:26:49.504Z,14.91
2022-08-30T04:29:51.437Z,14.92
2022-08-30T04:32:58.066Z,14.96
2022-08-30T04:36:04.830Z,14.97
2022-08-30T04:39:06.973Z,14.96
2022-08-30T04:42:10.738Z,14.96
2022-08-30T04:45:15.296Z,14.97
2022-08-30T04:48:17.787Z,14.95
2022-08-30T04:51:19.454Z,14.98
2022-08-30T04:54:21.475Z,15.00
2022-08-30T04:57:24.562Z,15.05
2022-08-30T05:00:27.058Z,15.11
2022-08-30T05:03:28.736Z,15.14
2022-08-30T05:06:33.925Z,15.18
2022-08-30T05:09:35.762Z,15.19
2022-08-30T05:12:37.472Z,15.24
2022-08-30T05:15:40.583Z,15.25
2022-08-30T05:18:42.356Z,15.24
2022-08-30T05:21:44.433Z,15.32
2022-08-30T05:24:46.137Z,15.35
2022-08-30T05:27:48.193Z,15.37
2022-08-30T05:30:50.383Z,15.40
2022-08-30T05:33:53.877Z,15.45
2022-08-30T05:36:55.826Z,15.49
2022-08-30T05:40:00.378Z,15.56
2022-08-30T05:43:02.276Z,15.62
2022-08-30T05:46:12.348Z,15.66
2022-08-30T05:49:14.239Z,15.70
2022-08-30T05:52:18.363Z,15.75
2022-08-30T05:55:20.236Z,15.78
2022-08-30T05:58:22.186Z,15.77
2022-08-30T06:01:33.382Z,15.83
2022-08-30T06:04:36.784Z,15.87
2022-08-30T06:07:38.558Z,15.90
2022-08-30T06:10:40.184Z,15.93
2022-08-30T06:13:42.138Z,15.94
2022-08-30T06:16:45.888Z,15.99
2022-08-30T06:19:48.848Z,16.05
2022-08-30T06:22:50.603Z,16.10
2022-08-30T06:25:52.530Z,16.12
2022-08-30T06:28:54.912Z,16.12
2022-08-30T06:31:57.838Z,16.09
2022-08-30T06:35:02.672Z,16.12
2022-08-30T06:38:05.185Z,16.17
2022-08-30T06:41:19.719Z,16.19
2022-08-30T06:44:21.725Z,16.24
2022-08-30T06:47:24.172Z,16.32
2022-08-30T06:50:26.069Z,16.35
2022-08-30T06:53:29.846Z,16.44
2022-08-30T06:56:36.736Z,16.60
2022-08-30T06:59:39.124Z,16.72
2022-08-30T07:02:41.588Z,16.79
2022-08-30T07:05:43.487Z,16.87
2022-08-30T07:08:46.240Z,17.05
2022-08-30T07:11:48.183Z,17.25
2022-08-30T07:14:50.160Z,17.42
2022-08-30T07:18:10.033Z,17.63
2022-08-30T07:21:17.347Z,17.92
2022-08-30T07:24:20.256Z,18.09
2022-08-30T07:27:22.049Z,18.22
2022-08-30T07:30:24.432Z,18.27
2022-08-30T07:33:26.823Z,18.33
2022-08-30T07:36:29.695Z,18.35
2022-08-30T07:39:31.834Z,18.42
2022-08-30T07:42:33.844Z,18.50
2022-08-30T07:45:38.003Z,18.63
2022-08-30T07:48:39.760Z,18.68
2022-08-30T07:51:41.882Z,18.61
2022-08-30T07:54:43.715Z,18.55
2022-08-30T07:57:46.456Z,18.55
2022-08-30T08:00:48.337Z,18.69
2022-08-30T08:03:50.606Z,18.79
2022-08-30T08:06:52.261Z,18.78
2022-08-30T08:09:54.030Z,18.84
2022-08-30T08:12:55.896Z,18.89
2022-08-30T08:15:57.874Z,18.88
2022-08-30T08:19:00.073Z,18.88
2022-08-30T08:22:20.667Z,18.93
2022-08-30T08:25:23.482Z,19.01
2022-08-30T08:28:25.458Z,19.07
2022-08-30T08:31:31.411Z,19.09
2022-08-30T08:34:36.413Z,19.15
2022-08-30T08:37:39.512Z,19.31
2022-08-30T08:41:05.462Z,19.48
2022-08-30T08:44:43.649Z,19.72
2022-08-30T08:48:06.565Z,19.84
2022-08-30T08:51:30.363Z,19.96
2022-08-30T08:54:57.913Z,20.13
2022-08-30T08:58:01.811Z,20.29
2022-08-30T09:01:03.831Z,20.40
2022-08-30T09:04:26.852Z,20.51
2022-08-30T09:07:35.983Z,20.74
2022-08-30T09:10:54.676Z,21.01
2022-08-30T09:13:56.826Z,21.22
2022-08-30T09:17:03.007Z,21.36
2022-08-30T09:20:05.740Z,21.53
2022-08-30T09:23:17.381Z,21.60
2022-08-30T09:26:30.379Z,21.70
2022-08-30T09:29:35.178Z,21.83
2022-08-30T09:33:05.264Z,21.97
2022-08-30T09:36:22.547Z,21.89
2022-08-30T09:39:38.166Z,21.94
2022-08-30T09:42:40.947Z,21.95
2022-08-30T09:45:49.682Z,22.06
2022-08-30T09:48:51.861Z,22.20
2022-08-30T09:52:23.932Z,22.17
2022-08-30T09:55:49.123Z,22.03
2022-08-30T09:58:51.359Z,21.91
2022-08-30T10:02:08.407Z,21.97
2022-08-30T10:05:20.411Z,22.15
2022-08-30T10:08:37.113Z,22.27
2022-08-30T10:12:04.263Z,22.27
2022-08-30T10:15:34.546Z,22.24
2022-08-30T10:19:01.752Z,22.16
2022-08-30T10:22:19.297Z,22.19
2022-08-30T10:25:26.570Z,22.18
2022-08-30T10:28:37.860Z,22.09
2022-08-30T10:32:05.490Z,22.17
2022-08-30T10:35:18.776Z,22.26
2022-08-30T10:38:25.476Z,22.28
2022-08-30T10:41:36.432Z,22.43
2022-08-30T10:44:44.300Z,22.50
2022-08-30T10:48:19.431Z,22.61
2022-08-30T10:51:40.180Z,22.80
2022-08-30T10:55:05.114Z,22.95
2022-08-30T10:58:08.123Z,23.07
2022-08-30T11:01:35.018Z,23.19
2022-08-30T11:04:55.815Z,23.08
2022-08-30T11:08:22.155Z,22.92
2022-08-30T11:11:56.159Z,22.22
2022-08-30T11:14:58.316Z,21.66
2022-08-30T11:18:14.816Z,21.37
2022-08-30T11:21:36.066Z,21.19
2022-08-30T11:25:15.881Z,21.03
2022-08-30T11:28:36.520Z,20.98
2022-08-30T11:31:40.976Z,21.21
2022-08-30T11:34:45.947Z,21.43
2022-08-30T11:37:49.028Z,21.36
2022-08-30T11:40:56.375Z,21.44
2022-08-30T11:44:17.564Z,21.64
2022-08-30T11:47:39.596Z,21.60
2022-08-30T11:51:09.158Z,21.60
2022-08-30T11:54:23.277Z,21.68
2022-08-30T11:57:50.808Z,21.91
2022-08-30T12:01:50.751Z,22.04
2022-08-30T12:04:49.521Z,22.22
2022-08-30T12:08:03.005Z,22.23
2022-08-30T12:11:10.756Z,22.33
2022-08-30T12:14:41.735Z,22.37
2022-08-30T12:18:01.872Z,22.40
2022-08-30T12:21:12.291Z,22.50
2022-08-30T12:24:24.811Z,22.79
2022-08-30T12:27:33.460Z,22.97
2022-08-30T12:30:39.685Z,23.05
2022-08-30T12:33:45.297Z,23.18
2022-08-30T12:37:28.230Z,23.56
2022-08-30T12:40:31.361Z,23.79
2022-08-30T12:43:40.515Z,23.96
2022-08-30T12:46:46.654Z,24.22
2022-08-30T12:49:51.481Z,24.42
2022-08-30T12:53:14.285Z,24.58
2022-08-30T12:56:35.059Z,24.60
2022-08-30T12:59:58.580Z,24.57
2022-08-30T13:03:36.919Z,24.75
2022-08-30T13:07:00.093Z,24.97
2022-08-30T13:10:05.828Z,25.17
2022-08-30T13:13:07.429Z,25.13
2022-08-30T13:16:18.319Z,25.17
2022-08-30T13:19:37.494Z,25.25
2022-08-30T13:22:41.783Z,25.50
2022-08-30T13:25:43.892Z,25.74
2022-08-30T13:28:50.204Z,26.00
2022-08-30T13:31:52.181Z,26.03
2022-08-30T13:34:54.079Z,25.96
2022-08-30T13:37:56.999Z,26.14
2022-08-30T13:40:59.612Z,26.35
2022-08-30T13:44:20.253Z,26.49
2022-08-30T13:47:37.617Z,26.66
2022-08-30T13:50:40.116Z,26.76
2022-08-30T13:53:57.796Z,26.87
2022-08-30T13:56:59.840Z,26.80
2022-08-30T14:00:09.824Z,26.73
2022-08-30T14:03:14.916Z,26.81
2022-08-30T14:06:32.791Z,26.84
2022-08-30T14:09:35.890Z,26.86
2022-08-30T14:12:53.447Z,26.95
2022-08-30T14:19:18.821Z,27.21
2022-08-30T14:22:20.843Z,27.31
2022-08-30T14:25:22.611Z,27.46
2022-08-30T14:28:26.090Z,27.40
2022-08-30T14:31:32.731Z,27.46
2022-08-30T14:34:35.468Z,27.50
2022-08-30T14:37:37.376Z,27.58
2022-08-30T14:40:40.974Z,27.56
2022-08-30T14:43:42.950Z,27.55
2022-08-30T14:46:45.987Z,27.57
2022-08-30T14:49:47.769Z,27.55
2022-08-30T14:52:49.933Z,27.71
2022-08-30T14:55:51.692Z,27.88
2022-08-30T14:59:00.463Z,28.03
2022-08-30T15:02:02.480Z,28.00
2022-08-30T15:05:06.957Z,28.01
2022-08-30T15:08:10.365Z,28.06
2022-08-30T15:11:15.800Z,27.96
2022-08-30T15:14:17.577Z,27.89
2022-08-30T15:17:19.843Z,27.96
2022-08-30T15:20:21.644Z,28.00
2022-08-30T15:23:24.783Z,27.98
2022-08-30T15:26:27.251Z,27.90
2022-08-30T15:29:31.681Z,27.79
2022-08-30T15:32:33.664Z,27.83
2022-08-30T15:35:35.771Z,27.76
2022-08-30T15:38:37.510Z,27.77
2022-08-30T15:41:44.315Z,27.67
2022-08-30T15:44:50.800Z,27.94
2022-08-30T15:47:52.788Z,28.18
2022-08-30T15:50:58.443Z,28.30
2022-08-30T15:54:00.421Z,28.13
2022-08-30T15:57:02.453Z,27.81
2022-08-30T16:00:10.102Z,27.71
2022-08-30T16:03:12.309Z,27.30
2022-08-30T16:06:17.615Z,26.72
2022-08-30T16:09:20.499Z,26.18
2022-08-30T16:12:23.815Z,25.71
2022-08-30T16:15:26.468Z,25.25
2022-08-30T16:18:28.544Z,24.86
2022-08-30T16:21:33.041Z,24.51
2022-08-30T16:24:35.838Z,24.25
2022-08-30T16:27:42.901Z,24.08
2022-08-30T16:30:45.444Z,23.90
2022-08-30T16:33:47.570Z,23.72
2022-08-30T16:36:54.836Z,23.62
2022-08-30T16:39:56.662Z,23.59
2022-08-30T16:42:58.718Z,23.50
2022-08-30T16:46:02.576Z,23.36
2022-08-30T16:49:06.029Z,23.26
2022-08-30T16:52:11.568Z,23.13
2022-08-30T16:55:13.486Z,22.99
2022-08-30T16:58:18.908Z,22.89
2022-08-30T17:01:22.353Z,22.72
2022-08-30T17:04:24.454Z,22.57
2022-08-30T17:07:27.147Z,22.45
2022-08-30T17:10:33.211Z,22.32
2022-08-30T17:13:36.185Z,22.18
2022-08-30T17:16:38.395Z,22.07
2022-08-30T17:19:43.065Z,21.92
2022-08-30T17:22:46.207Z,21.79
2022-08-30T17:25:48.350Z,21.70
2022-08-30T17:28:50.502Z,21.60
2022-08-30T17:31:52.789Z,21.53
2022-08-30T17:34:54.595Z,21.48
2022-08-30T17:37:57.082Z,21.41
2022-08-30T17:41:07.171Z,21.37
2022-08-30T17:44:08.896Z,21.38
2022-08-30T17:47:10.747Z,21.44
2022-08-30T17:50:13.491Z,21.49
2022-08-30T17:53:15.493Z,21.51
2022-08-30T17:56:19.186Z,21.48
2022-08-30T17:59:25.367Z,21.39
2022-08-30T18:02:30.273Z,21.29
2022-08-30T18:05:32.374Z,21.19
2022-08-30T18:08:37.084Z,21.03
2022-08-30T18:11:39.741Z,20.86
2022-08-30T18:14:42.212Z,20.75
2022-08-30T18:17:44.996Z,20.60
2022-08-30T18:20:49.634Z,20.48
2022-08-30T18:23:52.605Z,20.40
2022-08-30T18:26:59.920Z,20.26
2022-08-30T18:30:05.544Z,20.08
2022-08-30T18:33:07.341Z,19.90
2022-08-30T18:36:08.978Z,19.75
2022-08-30T18:39:10.623Z,19.64
2022-08-30T18:42:12.250Z,19.54
2022-08-30T18:45:15.794Z,19.44
2022-08-30T18:48:18.110Z,19.33
2022-08-30T18:51:21.777Z,19.20
2022-08-30T18:54:24.125Z,19.07
2022-08-30T18:57:25.929Z,18.99
2022-08-30T19:00:28.104Z,18.91
2022-08-30T19:03:32.939Z,18.83
2022-08-30T19:06:37.578Z,18.77
2022-08-30T19:09:40.042Z,18.69
2022-08-30T19:12:42.074Z,18.65
2022-08-30T19:15:43.895Z,18.59
2022-08-30T19:18:46.035Z,18.64
2022-08-30T19:21:49.800Z,18.56
2022-08-30T19:24:51.928Z,18.49
2022-08-30T19:27:53.726Z,18.44
2022-08-30T19:30:55.770Z,18.43
2022-08-30T19:33:58.691Z,18.41
2022-08-30T19:37:00.623Z,18.35
2022-08-30T19:40:05.431Z,18.28
2022-08-30T19:43:07.380Z,18.22
2022-08-30T19:46:09.584Z,18.18
2022-08-30T19:49:13.150Z,18.07
2022-08-30T19:52:14.994Z,18.00
2022-08-30T19:55:17.241Z,17.96
2022-08-30T19:58:25.788Z,17.94
2022-08-30T20:01:32.759Z,17.89
2022-08-30T20:04:35.680Z,17.85
2022-08-30T20:07:38.488Z,17.81
2022-08-30T20:10:43.144Z,17.75
2022-08-30T20:13:44.763Z,17.71
2022-08-30T20:16:47.692Z,17.67
2022-08-30T20:19:49.444Z,17.65
2022-08-30T20:22:54.303Z,17.61
2022-08-30T20:25:57.586Z,17.59
2022-08-30T20:29:00.784Z,17.57
2022-08-30T20:32:03.587Z,17.54
2022-08-30T20:35:07.455Z,17.53
2022-08-30T20:38:10.673Z,17.56
2022-08-30T20:41:16.914Z,17.61
2022-08-30T20:44:19.431Z,17.67
2022-08-30T20:47:22.340Z,17.66
2022-08-30T20:50:24.256Z,17.63
2022-08-30T20:53:26.180Z,17.63
2022-08-30T20:56:29.553Z,17.57
2022-08-30T20:59:31.877Z,17.53
2022-08-30T21:02:34.305Z,17.48
2022-08-30T21:05:36.235Z,17.46
2022-08-30T21:08:38.817Z,17.41
2022-08-30T21:11:44.357Z,17.39
2022-08-30T21:14:46.530Z,17.39
2022-08-30T21:17:48.288Z,17.38
2022-08-30T21:20:50.104Z,17.43
2022-08-30T21:23:53.961Z,17.46
2022-08-30T21:26:55.868Z,17.54
2022-08-30T21:29:58.280Z,17.52
2022-08-30T21:33:02.391Z,17.50
2022-08-30T21:36:24.481Z,17.49
2022-08-30T21:39:28.331Z,17.53
2022-08-30T21:42:30.004Z,17.53
2022-08-30T21:45:31.881Z,17.52
2022-08-30T21:48:37.318Z,17.52
2022-08-30T21:51:42.752Z,17.53
2022-08-30T21:54:44.574Z,17.54
2022-08-30T21:57:46.465Z,17.52
2022-08-30T22:00:48.611Z,17.50
2022-08-30T22:03:52.378Z,17.48
2022-08-30T22:06:54.379Z,17.42
2022-08-30T22:09:56.305Z,17.35
2022-08-30T22:12:58.284Z,17.27
2022-08-30T22:15:59.909Z,17.19
2022-08-30T22:19:02.070Z,17.15
2022-08-30T22:22:04.455Z,17.10
2022-08-30T22:25:06.910Z,17.04
2022-08-30T22:28:09.362Z,16.97
2022-08-30T22:31:14.398Z,17.00
2022-08-30T22:34:16.595Z,16.97
2022-08-30T22:37:18.462Z,16.91
2022-08-30T22:40:20.338Z,16.82
2022-08-30T22:43:22.731Z,16.75
2022-08-30T22:46:34.467Z,16.69
2022-08-30T22:49:36.562Z,16.60
2022-08-30T22:52:38.565Z,16.54
2022-08-30T22:55:41.401Z,16.56
2022-08-30T22:58:43.880Z,16.53
2022-08-30T23:01:47.005Z,16.52
2022-08-30T23:04:48.807Z,16.53
2022-08-30T23:07:51.807Z,16.54
2022-08-30T23:10:53.426Z,16.54
2022-08-30T23:13:55.216Z,16.57
2022-08-30T23:16:56.943Z,16.59
2022-08-30T23:19:59.638Z,16.63
2022-08-30T23:23:01.444Z,16.72
2022-08-30T23:26:23.276Z,16.76
2022-08-30T23:29:44.073Z,16.81
2022-08-30T23:33:04.562Z,16.83
2022-08-30T23:36:28.727Z,16.86
2022-08-30T23:39:49.264Z,16.85
2022-08-30T23:43:09.569Z,16.86
2022-08-30T23:46:30.135Z,16.84
2022-08-30T23:49:50.719Z,16.85
2022-08-30T23:53:11.412Z,16.80
2022-08-30T23:56:31.560Z,16.79
2022-08-30T23:59:52.236Z,16.76
